createdAt,value
2022-08-20T00:00:05.766Z,2.80
2022-08-20T00:01:09.176Z,2.90
2022-08-20T00:02:12.385Z,3.28
2022-08-20T00:03:17.333Z,3.40
2022-08-20T00:04:20.413Z,3.12
2022-08-20T00:05:33.016Z,2.83
2022-08-20T00:06:36.108Z,3.40
2022-08-20T00:07:39.186Z,3.12
2022-08-20T00:08:43.129Z,2.87
2022-08-20T00:09:46.106Z,3.00
2022-08-20T00:10:54.936Z,3.08
2022-08-20T00:11:58.653Z,3.10
2022-08-20T00:13:04.177Z,2.92
2022-08-20T00:14:08.246Z,3.03
2022-08-20T00:15:13.315Z,2.80
2022-08-20T00:16:19.158Z,2.92
2022-08-20T00:17:22.070Z,3.20
2022-08-20T00:18:25.429Z,2.53
2022-08-20T00:19:28.806Z,3.35
2022-08-20T00:20:35.975Z,3.28
2022-08-20T00:21:38.905Z,2.97
2022-08-20T00:22:45.781Z,2.70
2022-08-20T00:23:51.004Z,3.62
2022-08-20T00:24:53.975Z,2.85
2022-08-20T00:25:57.744Z,3.30
2022-08-20T00:27:00.996Z,3.12
2022-08-20T00:28:04.806Z,3.00
2022-08-20T00:29:07.731Z,3.20
2022-08-20T00:30:14.742Z,3.45
2022-08-20T00:31:20.551Z,3.08
2022-08-20T00:32:24.791Z,2.95
2022-08-20T00:33:27.715Z,3.25
2022-08-20T00:34:30.799Z,2.87
2022-08-20T00:35:36.060Z,3.22
2022-08-20T00:36:42.772Z,3.15
2022-08-20T00:37:46.009Z,2.92
2022-08-20T00:38:50.839Z,3.30
2022-08-20T00:39:53.972Z,3.37
2022-08-20T00:40:59.558Z,3.33
2022-08-20T00:42:02.602Z,3.65
2022-08-20T00:43:23.967Z,3.37
2022-08-20T00:44:27.364Z,3.50
2022-08-20T00:45:33.155Z,3.17
2022-08-20T00:46:37.452Z,3.03
2022-08-20T00:47:51.284Z,3.35
2022-08-20T00:48:57.010Z,3.10
2022-08-20T00:49:59.916Z,3.12
2022-08-20T00:51:08.565Z,3.85
2022-08-20T00:52:20.174Z,3.25
2022-08-20T00:53:26.264Z,3.37
2022-08-20T00:54:42.070Z,3.45
2022-08-20T00:55:45.496Z,3.40
2022-08-20T00:56:55.271Z,3.15
2022-08-20T00:58:05.589Z,3.50
2022-08-20T00:59:12.960Z,3.45
2022-08-20T01:00:23.040Z,3.30
2022-08-20T01:01:26.301Z,3.20
2022-08-20T01:02:31.757Z,3.60
2022-08-20T01:03:34.765Z,3.55
2022-08-20T01:04:38.155Z,2.87
2022-08-20T01:05:48.194Z,2.83
2022-08-20T01:06:51.256Z,3.30
2022-08-20T01:07:55.748Z,3.12
2022-08-20T01:09:02.451Z,2.90
2022-08-20T01:10:19.439Z,3.05
2022-08-20T01:11:30.536Z,2.83
2022-08-20T01:12:43.575Z,3.08
2022-08-20T01:13:47.275Z,3.50
2022-08-20T01:14:50.541Z,3.10
2022-08-20T01:15:56.462Z,3.12
2022-08-20T01:17:02.680Z,3.50
2022-08-20T01:18:10.184Z,3.53
2022-08-20T01:19:29.587Z,3.55
2022-08-20T01:20:38.833Z,3.87
2022-08-20T01:21:42.063Z,3.72
2022-08-20T01:23:21.662Z,3.90
2022-08-20T01:24:36.634Z,4.30
2022-08-20T01:25:45.760Z,3.40
2022-08-20T01:26:49.529Z,3.67
2022-08-20T01:27:55.731Z,3.95
2022-08-20T01:29:03.748Z,4.20
2022-08-20T01:30:07.992Z,3.87
2022-08-20T01:31:18.040Z,3.87
2022-08-20T01:33:25.967Z,3.60
2022-08-20T01:34:30.337Z,4.55
2022-08-20T01:35:38.618Z,3.75
2022-08-20T01:36:48.838Z,3.87
2022-08-20T01:37:51.912Z,4.72
2022-08-20T01:38:55.019Z,3.85
2022-08-20T01:39:58.050Z,4.70
2022-08-20T01:41:28.208Z,5.68
2022-08-20T01:42:58.537Z,5.50
2022-08-20T01:44:11.009Z,6.07
2022-08-20T01:45:20.244Z,6.03
2022-08-20T01:46:36.747Z,6.18
2022-08-20T01:47:42.320Z,6.40
2022-08-20T01:48:47.833Z,6.35
2022-08-20T01:49:54.849Z,6.68
2022-08-20T01:51:19.254Z,6.65
2022-08-20T01:52:32.757Z,6.35
2022-08-20T01:53:41.954Z,6.40
2022-08-20T01:54:47.149Z,6.07
2022-08-20T01:55:50.105Z,6.05
2022-08-20T01:57:03.670Z,6.28
2022-08-20T01:58:06.681Z,5.95
2022-08-20T01:59:09.724Z,6.28
2022-08-20T02:00:20.243Z,5.30
2022-08-20T02:01:45.858Z,5.35
2022-08-20T02:02:51.254Z,5.87
2022-08-20T02:03:55.084Z,6.70
2022-08-20T02:05:01.048Z,6.15
2022-08-20T02:06:04.220Z,5.30
2022-08-20T02:07:13.092Z,5.30
2022-08-20T02:08:16.185Z,5.22
2022-08-20T02:09:19.788Z,4.93
2022-08-20T02:10:23.995Z,6.25
2022-08-20T02:11:29.054Z,4.70
2022-08-20T02:12:32.033Z,5.43
2022-08-20T02:13:35.064Z,5.22
2022-08-20T02:14:48.605Z,5.60
2022-08-20T02:15:55.640Z,5.03
2022-08-20T02:17:00.086Z,4.47
2022-08-20T02:18:10.665Z,4.60
2022-08-20T02:19:20.117Z,4.97
2022-08-20T02:20:30.547Z,5.10
2022-08-20T02:21:38.299Z,4.22
2022-08-20T02:22:50.563Z,5.10
2022-08-20T02:23:53.577Z,4.43
2022-08-20T02:24:56.884Z,4.43
2022-08-20T02:26:00.401Z,4.57
2022-08-20T02:27:03.440Z,4.82
2022-08-20T02:28:10.794Z,4.57
2022-08-20T02:29:16.415Z,4.40
2022-08-20T02:30:27.818Z,5.22
2022-08-20T02:31:34.783Z,4.85
2022-08-20T02:32:39.512Z,4.60
2022-08-20T02:33:42.739Z,4.57
2022-08-20T02:35:09.002Z,5.15
2022-08-20T02:36:14.817Z,4.00
2022-08-20T02:37:19.693Z,4.85
2022-08-20T02:38:22.932Z,4.07
2022-08-20T02:39:27.242Z,4.25
2022-08-20T02:40:31.621Z,4.10
2022-08-20T02:41:35.638Z,4.47
2022-08-20T02:42:39.597Z,3.80
2022-08-20T02:43:42.801Z,3.70
2022-08-20T02:44:45.801Z,3.92
2022-08-20T02:45:49.151Z,4.15
2022-08-20T02:46:52.249Z,4.03
2022-08-20T02:47:57.362Z,4.20
2022-08-20T02:49:04.692Z,3.97
2022-08-20T02:50:08.521Z,4.22
2022-08-20T02:51:11.543Z,4.05
2022-08-20T02:52:14.517Z,3.87
2022-08-20T02:53:18.140Z,3.87
2022-08-20T02:54:21.099Z,3.60
2022-08-20T02:55:26.855Z,3.92
2022-08-20T02:56:30.648Z,4.00
2022-08-20T02:57:33.655Z,3.42
2022-08-20T02:58:37.710Z,4.05
2022-08-20T02:59:40.767Z,3.55
2022-08-20T03:00:44.929Z,3.83
2022-08-20T03:01:56.651Z,4.10
2022-08-20T03:03:04.368Z,3.80
2022-08-20T03:04:07.385Z,3.60
2022-08-20T03:05:10.753Z,3.55
2022-08-20T03:06:14.854Z,4.00
2022-08-20T03:07:18.039Z,4.07
2022-08-20T03:08:22.269Z,3.80
2022-08-20T03:09:25.468Z,3.65
2022-08-20T03:10:33.670Z,3.65
2022-08-20T03:11:36.806Z,3.78
2022-08-20T03:12:39.921Z,3.92
2022-08-20T03:13:43.016Z,3.55
2022-08-20T03:14:45.981Z,3.45
2022-08-20T03:15:59.267Z,3.90
2022-08-20T03:17:03.083Z,4.05
2022-08-20T03:18:05.923Z,3.75
2022-08-20T03:19:09.038Z,4.82
2022-08-20T03:20:12.986Z,4.78
2022-08-20T03:21:19.944Z,4.87
2022-08-20T03:22:23.115Z,5.22
2022-08-20T03:23:26.075Z,5.43
2022-08-20T03:24:29.042Z,4.90
2022-08-20T03:25:33.114Z,5.30
2022-08-20T03:26:37.879Z,5.50
2022-08-20T03:27:41.137Z,4.95
2022-08-20T03:28:44.400Z,4.95
2022-08-20T03:29:47.345Z,4.93
2022-08-20T03:30:51.751Z,5.15
2022-08-20T03:31:54.784Z,4.40
2022-08-20T03:32:58.309Z,4.85
2022-08-20T03:34:01.366Z,4.72
2022-08-20T03:35:11.126Z,4.60
2022-08-20T03:36:14.093Z,4.43
2022-08-20T03:37:24.224Z,4.53
2022-08-20T03:38:32.823Z,5.90
2022-08-20T03:39:37.116Z,5.03
2022-08-20T03:40:40.915Z,4.87
2022-08-20T03:41:43.970Z,4.37
2022-08-20T03:42:46.883Z,5.40
2022-08-20T03:43:49.867Z,5.40
2022-08-20T03:44:58.716Z,4.93
2022-08-20T03:46:02.512Z,4.55
2022-08-20T03:47:09.825Z,4.50
2022-08-20T03:48:17.012Z,5.03
2022-08-20T03:49:20.176Z,4.40
2022-08-20T03:50:26.269Z,4.12
2022-08-20T03:51:30.651Z,4.90
2022-08-20T03:52:33.683Z,4.37
2022-08-20T03:53:36.879Z,4.95
2022-08-20T03:54:40.488Z,4.75
2022-08-20T03:55:53.941Z,5.70
2022-08-20T03:56:57.561Z,5.50
2022-08-20T03:58:06.437Z,5.10
2022-08-20T03:59:09.926Z,5.40
2022-08-20T04:00:15.455Z,4.90
2022-08-20T04:02:28.595Z,5.22
2022-08-20T04:03:31.547Z,5.18
2022-08-20T04:04:34.767Z,5.20
2022-08-20T04:05:41.201Z,5.20
2022-08-20T04:06:44.435Z,5.50
2022-08-20T04:07:47.452Z,5.00
2022-08-20T04:08:50.821Z,5.55
2022-08-20T04:09:56.229Z,5.45
2022-08-20T04:11:00.217Z,5.05
2022-08-20T04:12:03.407Z,5.18
2022-08-20T04:13:07.495Z,5.05
2022-08-20T04:14:11.593Z,5.60
2022-08-20T04:15:19.586Z,5.50
2022-08-20T04:16:22.741Z,5.70
2022-08-20T04:17:26.910Z,5.25
2022-08-20T04:18:30.392Z,5.78
2022-08-20T04:19:34.374Z,5.50
2022-08-20T04:20:43.936Z,5.62
2022-08-20T04:21:48.768Z,5.97
2022-08-20T04:22:55.306Z,5.68
2022-08-20T04:24:05.117Z,5.60
2022-08-20T04:25:16.022Z,5.05
2022-08-20T04:26:20.207Z,5.72
2022-08-20T04:27:23.200Z,5.95
2022-08-20T04:28:28.722Z,4.82
2022-08-20T04:29:35.318Z,4.37
2022-08-20T04:30:39.108Z,5.20
2022-08-20T04:31:53.956Z,4.80
2022-08-20T04:32:57.098Z,4.55
2022-08-20T04:34:01.931Z,4.68
2022-08-20T04:35:07.885Z,5.20
2022-08-20T04:36:10.870Z,4.55
2022-08-20T04:37:16.906Z,5.12
2022-08-20T04:38:22.698Z,4.70
2022-08-20T04:39:25.920Z,4.95
2022-08-20T04:40:51.776Z,3.95
2022-08-20T04:41:56.284Z,4.25
2022-08-20T04:42:59.391Z,3.62
2022-08-20T04:44:02.476Z,4.10
2022-08-20T04:45:06.841Z,4.25
2022-08-20T04:46:10.390Z,3.80
2022-08-20T04:47:13.351Z,3.90
2022-08-20T04:48:16.340Z,4.10
2022-08-20T04:49:26.658Z,3.70
2022-08-20T04:50:33.709Z,4.05
2022-08-20T04:51:37.223Z,4.37
2022-08-20T04:52:40.719Z,3.62
2022-08-20T04:53:43.719Z,3.92
2022-08-20T04:54:53.958Z,4.62
2022-08-20T04:56:01.726Z,4.47
2022-08-20T04:57:04.843Z,4.25
2022-08-20T04:58:11.637Z,3.92
2022-08-20T04:59:15.213Z,3.83
2022-08-20T05:00:18.401Z,4.93
2022-08-20T05:01:24.268Z,4.40
2022-08-20T05:02:27.344Z,3.95
2022-08-20T05:03:31.365Z,3.92
2022-08-20T05:04:34.317Z,3.97
2022-08-20T05:05:37.298Z,3.97
2022-08-20T05:06:41.494Z,4.87
2022-08-20T05:07:46.670Z,4.30
2022-08-20T05:08:49.700Z,4.28
2022-08-20T05:09:53.005Z,3.97
2022-08-20T05:11:15.523Z,4.40
2022-08-20T05:12:20.052Z,4.75
2022-08-20T05:13:26.785Z,4.00
2022-08-20T05:14:30.683Z,4.30
2022-08-20T05:15:35.013Z,4.10
2022-08-20T05:16:40.846Z,4.82
2022-08-20T05:17:44.735Z,4.95
2022-08-20T05:18:52.236Z,3.75
2022-08-20T05:19:55.915Z,4.05
2022-08-20T05:21:04.333Z,4.22
2022-08-20T05:22:07.585Z,4.05
2022-08-20T05:23:12.232Z,3.95
2022-08-20T05:24:15.758Z,3.90
2022-08-20T05:25:19.205Z,3.70
2022-08-20T05:26:22.247Z,4.25
2022-08-20T05:27:27.584Z,3.80
2022-08-20T05:28:33.016Z,3.50
2022-08-20T05:29:39.910Z,3.35
2022-08-20T05:30:47.740Z,3.28
2022-08-20T05:31:50.752Z,3.20
2022-08-20T05:32:53.593Z,3.40
2022-08-20T05:33:58.118Z,3.53
2022-08-20T05:35:01.694Z,3.40
2022-08-20T05:36:06.933Z,3.50
2022-08-20T05:37:10.508Z,2.95
2022-08-20T05:38:18.411Z,3.45
2022-08-20T05:39:23.014Z,3.60
2022-08-20T05:40:26.000Z,2.78
2022-08-20T05:41:30.495Z,3.12
2022-08-20T05:42:33.542Z,3.30
2022-08-20T05:43:36.380Z,3.60
2022-08-20T05:44:39.640Z,2.92
2022-08-20T05:45:46.154Z,3.10
2022-08-20T05:46:49.329Z,3.50
2022-08-20T05:47:56.389Z,3.33
2022-08-20T05:49:02.121Z,3.05
2022-08-20T05:50:06.284Z,3.37
2022-08-20T05:51:12.084Z,3.65
2022-08-20T05:52:18.638Z,3.83
2022-08-20T05:53:23.365Z,3.15
2022-08-20T05:54:26.341Z,3.30
2022-08-20T05:55:29.507Z,3.53
2022-08-20T05:56:33.187Z,3.67
2022-08-20T05:57:37.117Z,3.67
2022-08-20T05:58:41.234Z,3.75
2022-08-20T05:59:44.037Z,3.62
2022-08-20T06:00:47.763Z,3.85
2022-08-20T06:01:51.323Z,3.45
2022-08-20T06:03:13.249Z,3.22
2022-08-20T06:04:25.109Z,3.80
2022-08-20T06:05:29.189Z,3.30
2022-08-20T06:06:45.762Z,3.75
2022-08-20T06:07:57.927Z,3.42
2022-08-20T06:09:10.722Z,3.58
2022-08-20T06:10:14.462Z,3.37
2022-08-20T06:11:17.370Z,3.55
2022-08-20T06:12:20.425Z,3.10
2022-08-20T06:13:23.649Z,3.05
2022-08-20T06:14:26.905Z,3.15
2022-08-20T06:15:31.126Z,3.47
2022-08-20T06:16:34.412Z,3.00
2022-08-20T06:17:40.903Z,3.50
2022-08-20T06:18:45.235Z,2.90
2022-08-20T06:19:48.678Z,2.92
2022-08-20T06:20:53.268Z,3.08
2022-08-20T06:21:56.840Z,2.97
2022-08-20T06:22:59.656Z,3.28
2022-08-20T06:24:02.676Z,2.80
2022-08-20T06:25:07.648Z,2.22
2022-08-20T06:26:11.378Z,2.95
2022-08-20T06:27:16.469Z,3.17
2022-08-20T06:28:20.002Z,2.70
2022-08-20T06:29:23.135Z,3.20
2022-08-20T06:30:26.253Z,3.17
2022-08-20T06:31:29.226Z,2.70
2022-08-20T06:32:33.113Z,2.85
2022-08-20T06:33:42.697Z,3.60
2022-08-20T06:34:50.093Z,3.10
2022-08-20T06:35:53.922Z,3.33
2022-08-20T06:37:04.769Z,2.92
2022-08-20T06:38:10.936Z,2.50
2022-08-20T06:39:15.031Z,2.60
2022-08-20T06:40:23.248Z,2.53
2022-08-20T06:41:36.856Z,2.85
2022-08-20T06:42:47.195Z,2.97
2022-08-20T06:43:54.261Z,4.30
2022-08-20T06:45:00.037Z,4.53
2022-08-20T06:46:03.207Z,4.22
2022-08-20T06:47:07.188Z,4.62
2022-08-20T06:48:15.098Z,4.43
2022-08-20T06:49:18.874Z,5.70
2022-08-20T06:50:30.235Z,5.22
2022-08-20T06:51:34.585Z,6.05
2022-08-20T06:52:52.704Z,5.50
2022-08-20T06:53:56.857Z,6.43
2022-08-20T06:54:59.814Z,6.35
2022-08-20T06:56:06.946Z,7.07
2022-08-20T06:57:09.954Z,8.48
2022-08-20T06:58:30.485Z,7.95
2022-08-20T06:59:39.232Z,7.18
2022-08-20T07:00:48.223Z,6.80
2022-08-20T07:01:51.323Z,7.43
2022-08-20T07:02:54.353Z,7.47
2022-08-20T07:04:00.019Z,7.93
2022-08-20T07:05:05.501Z,7.05
2022-08-20T07:06:09.158Z,6.90
2022-08-20T07:07:22.998Z,7.12
2022-08-20T07:08:25.979Z,7.95
2022-08-20T07:09:29.156Z,6.50
2022-08-20T07:10:32.270Z,6.75
2022-08-20T07:11:35.590Z,6.37
2022-08-20T07:12:38.575Z,6.75
2022-08-20T07:13:42.226Z,7.05
2022-08-20T07:14:45.249Z,6.30
2022-08-20T07:15:53.977Z,6.40
2022-08-20T07:16:57.172Z,5.87
2022-08-20T07:18:04.533Z,5.70
2022-08-20T07:19:08.631Z,5.43
2022-08-20T07:20:17.948Z,6.45
2022-08-20T07:21:20.909Z,6.62
2022-08-20T07:22:25.040Z,6.50
2022-08-20T07:23:28.770Z,6.47
2022-08-20T07:24:33.254Z,6.53
2022-08-20T07:25:37.380Z,6.30
2022-08-20T07:26:41.216Z,5.97
2022-08-20T07:27:45.634Z,6.62
2022-08-20T07:28:48.613Z,5.72
2022-08-20T07:30:15.270Z,5.87
2022-08-20T07:31:36.933Z,6.15
2022-08-20T07:32:39.813Z,6.12
2022-08-20T07:33:50.321Z,6.07
2022-08-20T07:34:53.626Z,6.55
2022-08-20T07:36:03.775Z,6.53
2022-08-20T07:37:10.992Z,6.35
2022-08-20T07:38:18.451Z,6.05
2022-08-20T07:39:21.603Z,5.93
2022-08-20T07:40:32.021Z,6.40
2022-08-20T07:41:36.334Z,6.03
2022-08-20T07:42:39.601Z,6.05
2022-08-20T07:43:46.238Z,5.28
2022-08-20T07:44:49.195Z,6.25
2022-08-20T07:45:55.909Z,5.65
2022-08-20T07:47:00.026Z,6.32
2022-08-20T07:48:12.111Z,6.00
2022-08-20T07:49:15.228Z,5.62
2022-08-20T07:50:23.839Z,5.18
2022-08-20T07:51:27.872Z,5.65
2022-08-20T07:52:30.848Z,5.93
2022-08-20T07:53:36.568Z,5.05
2022-08-20T07:54:39.709Z,5.97
2022-08-20T07:55:57.223Z,5.68
2022-08-20T07:57:03.631Z,5.93
2022-08-20T07:58:14.392Z,6.28
2022-08-20T07:59:17.465Z,6.30
2022-08-20T08:00:23.762Z,5.62
2022-08-20T08:01:30.611Z,5.25
2022-08-20T08:02:34.388Z,5.75
2022-08-20T08:03:49.174Z,5.30
2022-08-20T08:04:54.354Z,6.18
2022-08-20T08:05:57.390Z,6.50
2022-08-20T08:07:00.925Z,6.72
2022-08-20T08:08:07.310Z,6.12
2022-08-20T08:09:13.988Z,6.15
2022-08-20T08:10:22.450Z,6.30
2022-08-20T08:11:25.538Z,7.47
2022-08-20T08:12:36.705Z,6.90
2022-08-20T08:13:41.395Z,6.62
2022-08-20T08:14:46.596Z,6.93
2022-08-20T08:15:50.946Z,7.10
2022-08-20T08:16:58.736Z,7.10
2022-08-20T08:18:09.864Z,6.40
2022-08-20T08:19:17.523Z,7.62
2022-08-20T08:20:22.376Z,6.93
2022-08-20T08:21:29.770Z,7.28
2022-08-20T08:22:33.251Z,7.50
2022-08-20T08:23:36.429Z,8.23
2022-08-20T08:24:42.212Z,7.93
2022-08-20T08:26:00.298Z,8.45
2022-08-20T08:27:04.269Z,8.38
2022-08-20T08:28:07.292Z,8.80
2022-08-20T08:29:12.344Z,8.65
2022-08-20T08:30:17.193Z,8.85
2022-08-20T08:31:20.214Z,8.15
2022-08-20T08:32:23.428Z,8.05
2022-08-20T08:33:32.710Z,8.05
2022-08-20T08:34:36.995Z,8.93
2022-08-20T08:35:42.995Z,7.55
2022-08-20T08:36:46.221Z,8.00
2022-08-20T08:37:49.475Z,7.72
2022-08-20T08:38:52.570Z,8.35
2022-08-20T08:39:55.690Z,7.53
2022-08-20T08:41:04.302Z,8.07
2022-08-20T08:42:29.835Z,7.68
2022-08-20T08:43:33.062Z,7.43
2022-08-20T08:44:41.930Z,7.37
2022-08-20T08:45:48.500Z,8.90
2022-08-20T08:46:59.163Z,7.40
2022-08-20T08:48:02.392Z,7.78
2022-08-20T08:49:05.718Z,8.32
2022-08-20T08:50:38.223Z,8.98
2022-08-20T08:51:51.956Z,8.02
2022-08-20T08:52:59.763Z,7.85
2022-08-20T08:54:06.876Z,7.70
2022-08-20T08:55:16.715Z,7.55
2022-08-20T08:56:20.482Z,7.68
2022-08-20T08:57:24.460Z,8.20
2022-08-20T08:58:28.263Z,8.10
2022-08-20T09:00:02.331Z,7.87
2022-08-20T09:00:57.512Z,8.95
2022-08-20T09:02:07.239Z,9.10
2022-08-20T09:03:17.699Z,8.40
2022-08-20T09:04:24.808Z,8.35
2022-08-20T09:05:39.322Z,7.55
2022-08-20T09:06:43.669Z,7.18
2022-08-20T09:07:53.169Z,7.50
2022-08-20T09:09:04.414Z,7.30
2022-08-20T09:10:09.739Z,7.45
2022-08-20T09:11:13.009Z,7.87
2022-08-20T09:12:22.477Z,7.28
2022-08-20T09:13:25.438Z,7.10
2022-08-20T09:14:28.428Z,7.90
2022-08-20T09:15:31.332Z,7.85
2022-08-20T09:16:52.923Z,7.22
2022-08-20T09:17:57.128Z,6.32
2022-08-20T09:19:04.993Z,6.47
2022-08-20T09:20:10.943Z,6.12
2022-08-20T09:21:14.814Z,6.40
2022-08-20T09:22:22.024Z,5.95
2022-08-20T09:23:25.059Z,5.50
2022-08-20T09:24:28.041Z,5.18
2022-08-20T09:25:31.149Z,5.18
2022-08-20T09:26:38.594Z,3.90
2022-08-20T09:27:42.221Z,4.43
2022-08-20T09:28:51.594Z,3.20
2022-08-20T09:29:55.492Z,3.62
2022-08-20T09:30:58.870Z,3.90
2022-08-20T09:32:11.248Z,3.87
2022-08-20T09:33:14.241Z,4.78
2022-08-20T09:34:17.157Z,4.22
2022-08-20T09:35:20.080Z,3.72
2022-08-20T09:36:31.357Z,3.80
2022-08-20T09:37:37.645Z,3.72
2022-08-20T09:38:41.015Z,4.35
2022-08-20T09:39:44.109Z,4.18
2022-08-20T09:40:47.067Z,3.60
2022-08-20T09:41:50.069Z,3.85
2022-08-20T09:42:53.711Z,4.65
2022-08-20T09:43:56.728Z,4.43
2022-08-20T09:45:00.439Z,4.87
2022-08-20T09:46:03.472Z,5.28
2022-08-20T09:47:06.891Z,5.50
2022-08-20T09:48:10.471Z,6.07
2022-08-20T09:49:13.757Z,5.68
2022-08-20T09:50:16.829Z,6.32
2022-08-20T09:51:19.785Z,5.75
2022-08-20T09:52:38.952Z,5.90
2022-08-20T09:53:44.150Z,5.53
2022-08-20T09:54:47.352Z,4.95
2022-08-20T09:55:53.425Z,5.37
2022-08-20T09:56:58.992Z,5.25
2022-08-20T09:58:06.751Z,5.37
2022-08-20T09:59:09.853Z,4.97
2022-08-20T10:00:13.216Z,5.00
2022-08-20T10:01:19.022Z,5.30
2022-08-20T10:02:22.113Z,5.07
2022-08-20T10:03:25.221Z,5.40
2022-08-20T10:04:28.217Z,5.22
2022-08-20T10:05:31.967Z,4.70
2022-08-20T10:06:40.614Z,5.10
2022-08-20T10:07:44.030Z,4.93
2022-08-20T10:08:48.733Z,4.90
2022-08-20T10:09:51.881Z,5.10
2022-08-20T10:10:55.332Z,5.22
2022-08-20T10:11:58.160Z,4.65
2022-08-20T10:13:01.477Z,4.43
2022-08-20T10:14:04.636Z,4.15
2022-08-20T10:15:09.070Z,4.10
2022-08-20T10:16:12.065Z,3.67
2022-08-20T10:17:15.099Z,4.10
2022-08-20T10:18:18.041Z,3.87
2022-08-20T10:19:20.964Z,4.47
2022-08-20T10:20:27.497Z,4.30
2022-08-20T10:21:38.488Z,4.07
2022-08-20T10:22:42.227Z,4.30
2022-08-20T10:23:45.857Z,4.82
2022-08-20T10:24:48.810Z,4.62
2022-08-20T10:25:52.781Z,5.10
2022-08-20T10:26:58.940Z,5.22
2022-08-20T10:28:03.738Z,4.70
2022-08-20T10:29:06.677Z,5.43
2022-08-20T10:30:10.460Z,4.78
2022-08-20T10:31:14.521Z,5.80
2022-08-20T10:32:18.964Z,5.65
2022-08-20T10:33:24.264Z,5.85
2022-08-20T10:34:27.261Z,5.32
2022-08-20T10:35:30.640Z,5.87
2022-08-20T10:36:33.683Z,6.28
2022-08-20T10:37:42.807Z,6.28
2022-08-20T10:38:46.616Z,6.72
2022-08-20T10:39:52.949Z,5.87
2022-08-20T10:40:55.994Z,5.78
2022-08-20T10:41:58.920Z,6.10
2022-08-20T10:43:02.247Z,4.80
2022-08-20T10:44:05.648Z,6.00
2022-08-20T10:45:09.302Z,4.55
2022-08-20T10:46:12.456Z,3.97
2022-08-20T10:47:24.815Z,5.10
2022-08-20T10:48:32.010Z,5.82
2022-08-20T10:49:35.083Z,4.72
2022-08-20T10:50:38.171Z,5.03
2022-08-20T10:51:41.121Z,4.57
2022-08-20T10:52:44.492Z,4.35
2022-08-20T10:53:47.449Z,4.50
2022-08-20T10:54:51.516Z,3.92
2022-08-20T10:55:55.926Z,4.18
2022-08-20T10:57:03.707Z,5.05
2022-08-20T10:58:08.225Z,4.22
2022-08-20T10:59:14.346Z,4.20
2022-08-20T11:00:25.834Z,4.90
2022-08-20T11:01:32.683Z,4.35
2022-08-20T11:02:37.366Z,4.20
2022-08-20T11:03:44.026Z,3.72
2022-08-20T11:04:48.115Z,3.62
2022-08-20T11:05:51.226Z,3.62
2022-08-20T11:06:54.134Z,3.53
2022-08-20T11:07:57.104Z,3.22
2022-08-20T11:08:59.991Z,3.80
2022-08-20T11:10:04.385Z,3.72
2022-08-20T11:11:11.061Z,3.92
2022-08-20T11:12:15.103Z,4.00
2022-08-20T11:13:18.278Z,3.95
2022-08-20T11:14:21.138Z,4.15
2022-08-20T11:15:24.302Z,4.32
2022-08-20T11:16:27.306Z,4.40
2022-08-20T11:17:33.882Z,4.93
2022-08-20T11:18:43.740Z,4.70
2022-08-20T11:19:50.574Z,4.00
2022-08-20T11:20:53.509Z,4.25
2022-08-20T11:21:56.847Z,4.30
2022-08-20T11:23:05.865Z,4.12
2022-08-20T11:24:08.723Z,4.20
2022-08-20T11:25:12.494Z,4.25
2022-08-20T11:26:22.387Z,4.35
2022-08-20T11:27:33.450Z,3.70
2022-08-20T11:28:36.367Z,3.72
2022-08-20T11:29:39.595Z,3.47
2022-08-20T11:30:46.735Z,3.47
2022-08-20T11:31:49.639Z,3.50
2022-08-20T11:32:52.784Z,3.67
2022-08-20T11:33:55.854Z,3.65
2022-08-20T11:34:58.821Z,3.83
2022-08-20T11:36:01.756Z,3.90
2022-08-20T11:37:04.771Z,4.25
2022-08-20T11:38:07.891Z,3.62
2022-08-20T11:39:11.309Z,4.30
2022-08-20T11:40:14.403Z,4.20
2022-08-20T11:41:17.272Z,4.25
2022-08-20T11:42:24.084Z,3.72
2022-08-20T11:43:26.959Z,3.85
2022-08-20T11:44:29.921Z,4.32
2022-08-20T11:45:32.946Z,3.97
2022-08-20T11:46:40.761Z,3.67
2022-08-20T11:47:43.739Z,4.37
2022-08-20T11:48:46.974Z,4.32
2022-08-20T11:49:59.900Z,3.72
2022-08-20T11:51:02.893Z,4.00
2022-08-20T11:52:06.316Z,3.60
2022-08-20T11:53:10.271Z,4.55
2022-08-20T11:54:13.148Z,3.92
2022-08-20T11:55:18.371Z,4.20
2022-08-20T11:56:21.835Z,4.43
2022-08-20T11:57:33.677Z,4.55
2022-08-20T11:58:36.866Z,4.55
2022-08-20T11:59:39.855Z,4.43
2022-08-20T12:00:42.997Z,4.70
2022-08-20T12:02:01.930Z,5.40
2022-08-20T12:03:10.230Z,5.22
2022-08-20T12:04:14.592Z,5.30
2022-08-20T12:05:18.317Z,4.97
2022-08-20T12:06:21.244Z,4.80
2022-08-20T12:07:26.016Z,4.78
2022-08-20T12:08:29.780Z,4.90
2022-08-20T12:09:32.779Z,5.18
2022-08-20T12:10:37.387Z,5.20
2022-08-20T12:11:40.293Z,5.25
2022-08-20T12:12:46.486Z,4.82
2022-08-20T12:13:49.593Z,5.10
2022-08-20T12:14:55.547Z,4.90
2022-08-20T12:15:59.563Z,4.95
2022-08-20T12:17:15.054Z,4.80
2022-08-20T12:18:18.257Z,4.53
2022-08-20T12:19:21.331Z,4.95
2022-08-20T12:20:25.620Z,4.55
2022-08-20T12:21:32.392Z,5.10
2022-08-20T12:22:35.568Z,4.18
2022-08-20T12:23:38.888Z,4.45
2022-08-20T12:24:41.984Z,4.90
2022-08-20T12:25:44.829Z,4.40
2022-08-20T12:26:47.882Z,4.60
2022-08-20T12:27:50.844Z,5.12
2022-08-20T12:28:56.112Z,4.62
2022-08-20T12:30:02.071Z,4.07
2022-08-20T12:31:05.381Z,4.18
2022-08-20T12:32:09.666Z,4.15
2022-08-20T12:33:14.910Z,4.30
2022-08-20T12:34:17.838Z,4.15
2022-08-20T12:35:22.248Z,4.40
2022-08-20T12:36:25.255Z,4.32
2022-08-20T12:37:31.309Z,4.75
2022-08-20T12:38:34.567Z,3.90
2022-08-20T12:39:46.239Z,4.15
2022-08-20T12:40:50.727Z,4.22
2022-08-20T12:41:54.744Z,4.50
2022-08-20T12:43:00.969Z,4.07
2022-08-20T12:44:07.291Z,4.65
2022-08-20T12:45:17.183Z,4.68
2022-08-20T12:46:20.215Z,4.40
2022-08-20T12:47:26.414Z,4.37
2022-08-20T12:48:29.332Z,4.50
2022-08-20T12:49:32.338Z,4.40
2022-08-20T12:50:38.497Z,4.50
2022-08-20T12:51:41.467Z,4.53
2022-08-20T12:52:44.809Z,5.03
2022-08-20T12:53:47.658Z,4.70
2022-08-20T12:54:51.066Z,4.80
2022-08-20T12:55:53.937Z,4.30
2022-08-20T12:56:57.340Z,3.87
2022-08-20T12:58:02.734Z,3.95
2022-08-20T12:59:06.756Z,4.18
2022-08-20T13:00:17.759Z,3.90
2022-08-20T13:01:22.081Z,3.83
2022-08-20T13:02:25.207Z,4.07
2022-08-20T13:03:32.233Z,4.00
2022-08-20T13:04:35.243Z,4.18
2022-08-20T13:05:39.899Z,3.80
2022-08-20T13:06:43.024Z,3.87
2022-08-20T13:07:47.248Z,4.10
2022-08-20T13:08:50.247Z,3.65
2022-08-20T13:09:53.761Z,3.53
2022-08-20T13:10:56.717Z,3.35
2022-08-20T13:11:59.661Z,3.20
2022-08-20T13:13:05.493Z,3.20
2022-08-20T13:14:08.691Z,3.65
2022-08-20T13:15:12.089Z,3.78
2022-08-20T13:16:15.060Z,3.58
2022-08-20T13:17:19.512Z,3.75
2022-08-20T13:18:41.371Z,3.55
2022-08-20T13:19:45.546Z,3.55
2022-08-20T13:20:48.803Z,3.70
2022-08-20T13:21:55.944Z,3.67
2022-08-20T13:22:59.194Z,3.67
2022-08-20T13:24:02.372Z,3.47
2022-08-20T13:25:06.666Z,3.72
2022-08-20T13:26:09.857Z,3.55
2022-08-20T13:27:19.914Z,3.97
2022-08-20T13:28:23.126Z,3.92
2022-08-20T13:29:26.083Z,3.60
2022-08-20T13:30:29.023Z,3.53
2022-08-20T13:31:32.025Z,3.65
2022-08-20T13:32:35.027Z,3.67
2022-08-20T13:33:38.166Z,3.30
2022-08-20T13:34:41.336Z,3.47
2022-08-20T13:35:44.482Z,3.30
2022-08-20T13:36:47.490Z,3.60
2022-08-20T13:37:51.041Z,3.78
2022-08-20T13:38:54.114Z,3.65
2022-08-20T13:39:58.632Z,3.50
2022-08-20T13:41:01.573Z,3.90
2022-08-20T13:42:04.740Z,4.20
2022-08-20T13:43:07.811Z,3.67
2022-08-20T13:44:15.153Z,3.10
2022-08-20T13:45:18.263Z,3.45
2022-08-20T13:46:21.318Z,3.90
2022-08-20T13:47:32.773Z,3.10
2022-08-20T13:49:38.601Z,3.30
2022-08-20T13:50:41.591Z,3.20
2022-08-20T13:51:44.610Z,3.15
2022-08-20T13:52:49.636Z,3.10
2022-08-20T13:53:52.686Z,3.62
2022-08-20T13:54:55.707Z,3.42
2022-08-20T13:55:58.740Z,3.30
2022-08-20T13:57:17.099Z,3.37
2022-08-20T13:58:20.169Z,3.55
2022-08-20T13:59:24.559Z,3.47
2022-08-20T14:00:32.213Z,3.75
2022-08-20T14:01:39.170Z,3.00
2022-08-20T14:02:43.117Z,3.53
2022-08-20T14:03:46.881Z,3.33
2022-08-20T14:04:51.451Z,3.20
2022-08-20T14:05:54.695Z,3.10
2022-08-20T14:06:57.666Z,3.35
2022-08-20T14:08:12.853Z,3.22
2022-08-20T14:09:15.899Z,3.58
2022-08-20T14:10:26.602Z,3.30
2022-08-20T14:11:29.595Z,3.10
2022-08-20T14:12:32.707Z,3.60
2022-08-20T14:13:35.681Z,3.33
2022-08-20T14:14:38.743Z,3.08
2022-08-20T14:15:41.863Z,3.10
2022-08-20T14:16:44.709Z,3.33
2022-08-20T14:17:53.845Z,3.03
2022-08-20T14:19:01.508Z,3.28
2022-08-20T14:20:15.696Z,3.30
2022-08-20T14:21:20.901Z,3.15
2022-08-20T14:22:25.388Z,2.83
2022-08-20T14:23:28.373Z,2.70
2022-08-20T14:24:36.153Z,2.75
2022-08-20T14:25:39.212Z,3.40
2022-08-20T14:26:42.308Z,2.80
2022-08-20T14:27:45.420Z,2.72
2022-08-20T14:28:48.461Z,2.97
2022-08-20T14:29:51.557Z,3.15
2022-08-20T14:30:54.527Z,3.53
2022-08-20T14:31:57.508Z,2.92
2022-08-20T14:33:00.511Z,3.47
2022-08-20T14:34:03.354Z,3.42
2022-08-20T14:35:07.022Z,3.40
2022-08-20T14:36:10.035Z,3.25
2022-08-20T14:37:22.256Z,3.40